createdAt,value
2018-05-10T00:02:29.498Z,63.01
2018-05-10T00:05:00.326Z,62.89
2018-05-10T00:07:31.386Z,62.84
2018-05-10T00:10:02.383Z,62.88
2018-05-10T00:12:33.417Z,62.80
2018-05-10T00:15:04.129Z,62.78
2018-05-10T00:17:35.704Z,62.87
2018-05-10T00:20:06.462Z,62.97
2018-05-10T00:22:37.404Z,62.86
2018-05-10T00:25:08.379Z,63.32
2018-05-10T00:27:39.318Z,64.03
2018-05-10T00:30:10.019Z,63.80
2018-05-10T00:32:40.766Z,63.63
2018-05-10T00:35:11.486Z,63.58
2018-05-10T00:37:42.435Z,63.47
2018-05-10T00:40:13.402Z,63.45
2018-05-10T00:42:44.415Z,63.49
2018-05-10T00:45:15.312Z,63.44
2018-05-10T00:47:46.417Z,63.37
2018-05-10T00:50:17.385Z,63.98
2018-05-10T00:52:48.309Z,63.83
2018-05-10T00:55:19.217Z,64.04
2018-05-10T00:57:50.771Z,64.45
2018-05-10T01:00:21.472Z,65.68
2018-05-10T01:02:52.179Z,66.27
2018-05-10T01:05:23.639Z,66.71
2018-05-10T01:07:54.446Z,69.07
2018-05-10T01:10:25.027Z,68.49
2018-05-10T01:12:55.794Z,68.64
2018-05-10T01:15:26.511Z,70.04
2018-05-10T01:17:57.273Z,70.49
2018-05-10T01:20:27.981Z,71.32
2018-05-10T01:22:58.841Z,72.43
2018-05-10T01:25:29.327Z,73.18
2018-05-10T01:28:00.478Z,73.78
2018-05-10T01:30:31.451Z,72.51
2018-05-10T01:33:02.047Z,73.86
2018-05-10T01:35:43.589Z,73.66
2018-05-10T01:38:12.832Z,73.12
2018-05-10T01:40:41.803Z,73.64
2018-05-10T01:43:10.619Z,73.14
2018-05-10T01:45:39.644Z,74.47
2018-05-10T01:48:08.617Z,74.12
2018-05-10T01:50:37.585Z,75.33
2018-05-10T01:53:08.408Z,75.08
2018-05-10T01:55:39.430Z,75.25
2018-05-10T01:58:10.526Z,73.76
2018-05-10T02:00:41.415Z,73.75
2018-05-10T02:03:12.572Z,73.47
2018-05-10T02:05:43.382Z,73.53
2018-05-10T02:08:14.498Z,73.05
2018-05-10T02:10:45.386Z,73.23
2018-05-10T02:13:16.489Z,73.87
2018-05-10T02:15:47.370Z,75.11
2018-05-10T02:18:18.359Z,74.50
2018-05-10T02:20:49.378Z,74.52
2018-05-10T02:23:20.346Z,73.97
2018-05-10T02:25:50.955Z,73.64
2018-05-10T02:28:21.695Z,73.64
2018-05-10T02:30:52.429Z,73.50
2018-05-10T02:33:23.400Z,73.08
2018-05-10T02:35:54.377Z,73.09
2018-05-10T02:38:25.496Z,73.09
2018-05-10T02:40:56.375Z,73.03
2018-05-10T02:43:27.454Z,72.95
2018-05-10T02:45:58.365Z,72.90
2018-05-10T02:48:29.491Z,72.88
2018-05-10T02:51:00.347Z,72.97
2018-05-10T02:53:31.462Z,73.09
2018-05-10T02:56:02.458Z,73.06
2018-05-10T02:58:33.455Z,72.99
2018-05-10T03:01:04.495Z,73.07
2018-05-10T03:03:35.421Z,73.16
2018-05-10T03:06:06.396Z,73.27
2018-05-10T03:08:37.398Z,73.34
2018-05-10T03:11:08.351Z,73.31
2018-05-10T03:13:39.540Z,73.39
2018-05-10T03:16:10.478Z,73.48
2018-05-10T03:18:41.422Z,73.48
2018-05-10T03:21:12.437Z,73.45
2018-05-10T03:23:43.487Z,73.63
2018-05-10T03:26:14.330Z,73.50
2018-05-10T03:28:45.498Z,73.35
2018-05-10T03:31:17.909Z,73.27
2018-05-10T03:33:47.940Z,73.22
2018-05-10T03:36:18.603Z,73.49
2018-05-10T03:38:49.423Z,73.59
2018-05-10T03:41:19.991Z,73.37
2018-05-10T03:43:50.742Z,73.55
2018-05-10T03:46:20.742Z,73.61
2018-05-10T03:48:51.522Z,73.55
2018-05-10T03:51:22.688Z,73.46
2018-05-10T03:53:52.703Z,73.36
2018-05-10T03:56:23.606Z,73.36
2018-05-10T03:58:54.460Z,73.50
2018-05-10T04:01:25.324Z,73.62
2018-05-10T04:04:07.393Z,74.01
2018-05-10T04:06:47.378Z,74.46
2018-05-10T04:09:27.328Z,74.25
2018-05-10T04:11:56.316Z,74.10
2018-05-10T04:14:25.265Z,74.13
2018-05-10T04:16:54.311Z,74.48
2018-05-10T04:19:23.277Z,75.08
2018-05-10T04:21:52.310Z,75.46
2018-05-10T04:24:21.328Z,74.69
2018-05-10T04:26:50.294Z,74.76
2018-05-10T04:29:19.683Z,75.29
2018-05-10T04:31:48.695Z,76.86
2018-05-10T04:34:17.670Z,75.01
2018-05-10T04:36:46.607Z,76.06
2018-05-10T04:39:15.661Z,76.01
2018-05-10T04:41:44.647Z,76.12
2018-05-10T04:44:13.598Z,74.34
2018-05-10T04:46:42.708Z,74.71
2018-05-10T04:49:11.658Z,74.70
2018-05-10T04:51:42.397Z,74.68
2018-05-10T04:54:13.311Z,74.43
2018-05-10T04:56:44.622Z,76.37
2018-05-10T04:59:15.365Z,75.56
2018-05-10T05:01:45.997Z,76.94
2018-05-10T05:04:16.660Z,76.46
2018-05-10T05:06:47.418Z,75.78
2018-05-10T05:09:18.328Z,76.85
2018-05-10T05:11:49.493Z,76.14
2018-05-10T05:14:20.418Z,76.91
2018-05-10T05:16:51.428Z,76.28
2018-05-10T05:19:22.048Z,75.41
2018-05-10T05:21:53.003Z,74.16
2018-05-10T05:24:23.642Z,74.02
2018-05-10T05:26:54.208Z,72.72
2018-05-10T05:29:25.330Z,72.78
2018-05-10T05:31:57.052Z,72.37
2018-05-10T05:34:27.665Z,71.90
2018-05-10T05:36:58.448Z,71.56
2018-05-10T05:39:29.318Z,71.52
2018-05-10T05:42:00.031Z,71.04
2018-05-10T05:44:30.730Z,70.91
2018-05-10T05:47:01.465Z,71.24
2018-05-10T05:49:32.435Z,71.68
2018-05-10T05:52:03.450Z,73.32
2018-05-10T05:54:34.354Z,73.34
2018-05-10T05:57:05.063Z,74.60
2018-05-10T05:59:36.832Z,74.86
2018-05-10T06:02:07.557Z,73.88
2018-05-10T06:04:38.536Z,74.10
2018-05-10T06:07:09.406Z,74.48
2018-05-10T06:09:40.465Z,74.67
2018-05-10T06:12:11.384Z,75.48
2018-05-10T06:14:42.505Z,74.07
2018-05-10T06:17:13.114Z,74.24
2018-05-10T06:19:48.349Z,74.78
2018-05-10T06:22:17.882Z,74.69
2018-05-10T06:24:46.976Z,74.92
2018-05-10T06:27:17.795Z,74.69
2018-05-10T06:29:48.632Z,75.80
2018-05-10T06:32:19.421Z,75.40
2018-05-10T06:34:50.094Z,75.28
2018-05-10T06:37:20.715Z,74.72
2018-05-10T06:39:51.559Z,75.40
2018-05-10T06:42:22.432Z,74.49
2018-05-10T06:44:53.480Z,74.53
2018-05-10T06:47:25.938Z,74.25
2018-05-10T06:49:54.936Z,73.95
2018-05-10T06:52:25.343Z,73.45
2018-05-10T06:54:56.881Z,72.82
2018-05-10T06:57:27.635Z,72.20
2018-05-10T06:59:58.446Z,71.82
2018-05-10T07:02:29.477Z,71.19
2018-05-10T07:05:00.482Z,71.64
2018-05-10T07:07:31.396Z,71.05
2018-05-10T07:10:02.696Z,71.13
2018-05-10T07:12:33.605Z,71.55
2018-05-10T07:15:04.599Z,71.25
2018-05-10T07:17:35.218Z,70.96
2018-05-10T07:20:06.786Z,70.67
2018-05-10T07:22:37.490Z,70.58
2018-05-10T07:25:08.466Z,70.59
2018-05-10T07:27:39.419Z,69.85
2018-05-10T07:30:10.076Z,69.40
2018-05-10T07:32:40.715Z,68.81
2018-05-10T07:35:11.560Z,68.21
2018-05-10T07:37:42.523Z,67.38
2018-05-10T07:40:14.294Z,66.62
2018-05-10T07:42:44.873Z,66.10
2018-05-10T07:45:15.629Z,66.17
2018-05-10T07:47:46.375Z,65.29
2018-05-10T07:50:18.094Z,64.36
2018-05-10T07:52:48.517Z,65.81
2018-05-10T07:55:19.423Z,66.73
2018-05-10T07:57:49.955Z,66.35
2018-05-10T08:00:20.710Z,66.70
2018-05-10T08:02:51.428Z,67.01
2018-05-10T08:05:22.423Z,66.89
2018-05-10T08:07:53.371Z,67.22
2018-05-10T08:10:24.462Z,67.21
2018-05-10T08:12:55.473Z,67.69
2018-05-10T08:15:26.513Z,67.45
2018-05-10T08:17:57.432Z,65.54
2018-05-10T08:20:28.430Z,65.21
2018-05-10T08:22:59.397Z,64.86
2018-05-10T08:25:30.511Z,65.50
2018-05-10T08:28:01.412Z,65.02
2018-05-10T08:30:32.422Z,65.20
2018-05-10T08:33:03.391Z,65.40
2018-05-10T08:35:34.503Z,65.09
2018-05-10T08:38:04.974Z,64.87
2018-05-10T08:40:35.919Z,64.77
2018-05-10T08:43:06.639Z,64.37
2018-05-10T08:45:37.147Z,64.57
2018-05-10T08:48:07.666Z,64.56
2018-05-10T08:50:38.541Z,64.74
2018-05-10T08:53:09.400Z,64.77
2018-05-10T08:55:40.528Z,64.17
2018-05-10T08:58:11.181Z,64.15
2018-05-10T09:00:41.745Z,64.40
2018-05-10T09:03:12.530Z,63.84
2018-05-10T09:05:43.475Z,63.78
2018-05-10T09:08:14.346Z,63.02
2018-05-10T09:10:45.451Z,63.27
2018-05-10T09:13:16.040Z,63.01
2018-05-10T09:15:47.012Z,62.21
2018-05-10T09:18:17.741Z,61.87
2018-05-10T09:20:48.526Z,60.55
2018-05-10T09:23:19.350Z,61.22
2018-05-10T09:25:50.417Z,60.11
2018-05-10T09:28:21.474Z,60.24
2018-05-10T09:30:52.533Z,58.82
2018-05-10T09:33:23.374Z,59.19
2018-05-10T09:35:54.042Z,58.12
2018-05-10T09:38:24.791Z,57.94
2018-05-10T09:40:56.000Z,57.35
2018-05-10T09:43:26.749Z,58.01
2018-05-10T09:45:56.812Z,55.89
2018-05-10T09:48:27.482Z,55.45
2018-05-10T09:50:58.419Z,54.33
2018-05-10T09:53:29.379Z,54.07
2018-05-10T09:56:00.458Z,53.83
2018-05-10T09:58:30.963Z,54.17
2018-05-10T10:01:01.720Z,53.94
2018-05-10T10:03:32.454Z,52.41
2018-05-10T10:06:03.490Z,49.33
2018-05-10T10:08:34.342Z,48.44
2018-05-10T10:11:05.698Z,49.96
2018-05-10T10:13:36.443Z,50.79
2018-05-10T10:16:07.022Z,50.00
2018-05-10T10:18:37.698Z,49.50
2018-05-10T10:21:08.482Z,48.82
2018-05-10T10:23:39.410Z,48.06
2018-05-10T10:26:10.524Z,47.12
2018-05-10T10:28:41.306Z,45.59
2018-05-10T10:31:13.039Z,44.16
2018-05-10T10:33:43.700Z,42.63
2018-05-10T10:36:14.478Z,45.07
2018-05-10T10:38:45.446Z,45.33
2018-05-10T10:41:16.655Z,44.74
2018-05-10T10:43:47.426Z,44.54
2018-05-10T10:46:18.435Z,43.93
2018-05-10T10:48:49.425Z,43.01
2018-05-10T10:51:20.063Z,41.78
2018-05-10T10:53:50.565Z,42.11
2018-05-10T10:56:21.457Z,42.63
2018-05-10T10:58:52.360Z,42.63
2018-05-10T11:01:23.470Z,43.57
2018-05-10T11:03:54.347Z,42.29
2018-05-10T11:06:25.551Z,43.39
2018-05-10T11:08:56.321Z,43.10
2018-05-10T11:11:27.418Z,42.67
2018-05-10T11:13:58.402Z,43.11
2018-05-10T11:16:29.351Z,42.78
2018-05-10T11:19:00.398Z,43.22
2018-05-10T11:21:31.386Z,43.04
2018-05-10T11:24:02.427Z,42.08
2018-05-10T11:26:33.566Z,42.11
2018-05-10T11:29:04.368Z,42.12
2018-05-10T11:31:36.175Z,40.81
2018-05-10T11:34:06.674Z,39.00
2018-05-10T11:36:37.521Z,39.61
2018-05-10T11:39:08.415Z,39.66
2018-05-10T11:41:39.587Z,37.71
2018-05-10T11:44:10.455Z,37.69
2018-05-10T11:46:41.402Z,36.76
2018-05-10T11:49:12.334Z,36.24
2018-05-10T11:51:43.423Z,36.89
2018-05-10T11:54:13.925Z,36.45
2018-05-10T11:56:44.693Z,35.71
2018-05-10T11:59:15.366Z,35.89
2018-05-10T12:01:46.011Z,36.40
2018-05-10T12:04:16.685Z,35.64
2018-05-10T12:06:47.581Z,34.08
2018-05-10T12:09:18.486Z,33.63
2018-05-10T12:11:49.434Z,32.30
2018-05-10T12:14:20.138Z,33.42
2018-05-10T12:16:50.862Z,32.99
2018-05-10T12:19:21.579Z,33.40
2018-05-10T12:21:52.501Z,33.13
2018-05-10T12:24:23.310Z,32.17
2018-05-10T12:26:54.002Z,33.18
2018-05-10T12:29:24.719Z,32.96
2018-05-10T12:31:54.126Z,32.92
2018-05-10T12:34:25.666Z,32.98
2018-05-10T12:36:56.498Z,33.06
2018-05-10T12:39:27.356Z,32.96
2018-05-10T12:41:58.439Z,33.24
2018-05-10T12:44:29.366Z,32.83
2018-05-10T12:47:00.456Z,32.66
2018-05-10T12:49:31.320Z,32.49
2018-05-10T12:52:02.505Z,32.53
2018-05-10T12:54:32.976Z,33.04
2018-05-10T12:57:03.747Z,33.38
2018-05-10T12:59:34.431Z,32.84
2018-05-10T13:02:05.223Z,32.79
2018-05-10T13:04:36.361Z,32.58
2018-05-10T13:07:07.454Z,33.36
2018-05-10T13:09:38.353Z,33.20
2018-05-10T13:12:09.460Z,33.00
2018-05-10T13:14:40.082Z,33.09
2018-05-10T13:17:10.795Z,32.54
2018-05-10T13:19:41.456Z,32.22
2018-05-10T13:22:12.412Z,32.26
2018-05-10T13:24:43.405Z,31.58
2018-05-10T13:27:14.162Z,31.36
2018-05-10T13:29:45.214Z,31.41
2018-05-10T13:32:15.985Z,30.93
2018-05-10T13:34:46.689Z,31.81
2018-05-10T13:37:17.469Z,31.36
2018-05-10T13:39:48.314Z,29.74
2018-05-10T13:42:19.462Z,29.60
2018-05-10T13:44:50.374Z,30.52
2018-05-10T13:47:21.118Z,30.08
2018-05-10T13:49:51.987Z,30.28
2018-05-10T13:52:22.737Z,29.19
2018-05-10T13:54:53.453Z,29.87
2018-05-10T13:57:24.054Z,30.27
2018-05-10T13:59:54.762Z,30.77
2018-05-10T14:02:25.516Z,30.36
2018-05-10T14:04:56.401Z,31.26
2018-05-10T14:07:27.413Z,31.43
2018-05-10T14:09:58.460Z,31.82
2018-05-10T14:12:29.550Z,32.38
2018-05-10T14:15:00.536Z,31.96
2018-05-10T14:17:31.321Z,32.16
2018-05-10T14:20:02.322Z,32.81
2018-05-10T14:22:33.459Z,32.35
2018-05-10T14:25:04.338Z,33.29
2018-05-10T14:27:35.379Z,33.75
2018-05-10T14:30:06.392Z,34.60
2018-05-10T14:32:37.487Z,34.83
2018-05-10T14:35:08.416Z,35.00
2018-05-10T14:37:39.426Z,35.53
2018-05-10T14:40:10.044Z,35.53
2018-05-10T14:42:40.624Z,35.82
2018-05-10T14:45:11.366Z,35.68
2018-05-10T14:47:42.042Z,35.68
2018-05-10T14:50:12.693Z,35.44
2018-05-10T14:52:43.388Z,35.85
2018-05-10T14:55:13.985Z,36.42
2018-05-10T14:57:44.765Z,36.79
2018-05-10T15:00:14.729Z,35.94
2018-05-10T15:02:45.556Z,35.63
2018-05-10T15:05:16.366Z,35.92
2018-05-10T15:07:47.446Z,36.52
2018-05-10T15:10:18.049Z,36.91
2018-05-10T15:12:48.849Z,37.79
2018-05-10T15:15:19.678Z,38.44
2018-05-10T15:17:50.450Z,38.71
2018-05-10T15:20:21.537Z,37.60
2018-05-10T15:22:52.461Z,37.86
2018-05-10T15:25:23.433Z,36.81
2018-05-10T15:27:53.361Z,36.92
2018-05-10T15:30:24.114Z,36.64
2018-05-10T15:32:55.383Z,36.67
2018-05-10T15:35:26.494Z,36.49
2018-05-10T15:37:57.429Z,36.70
2018-05-10T15:40:28.472Z,37.07
2018-05-10T15:42:59.419Z,37.01
2018-05-10T15:45:30.451Z,37.00
2018-05-10T15:48:01.346Z,36.99
2018-05-10T15:50:32.449Z,37.26
2018-05-10T15:53:03.311Z,37.26
2018-05-10T15:55:34.048Z,37.59
2018-05-10T15:58:04.847Z,37.63
2018-05-10T16:00:35.691Z,37.96
2018-05-10T16:03:06.435Z,37.87
2018-05-10T16:05:37.455Z,37.92
2018-05-10T16:08:08.359Z,38.21
2018-05-10T16:10:39.369Z,38.32
2018-05-10T16:13:10.344Z,38.59
2018-05-10T16:15:41.063Z,38.79
2018-05-10T16:18:11.749Z,39.04
2018-05-10T16:20:42.461Z,39.28
2018-05-10T16:23:13.309Z,39.78
2018-05-10T16:25:44.697Z,39.98
2018-05-10T16:28:57.753Z,40.43
2018-05-10T16:31:26.958Z,41.12
2018-05-10T16:33:55.955Z,41.75
2018-05-10T16:36:24.975Z,42.35
2018-05-10T16:38:54.004Z,43.46
2018-05-10T16:41:22.979Z,44.29
2018-05-10T16:43:51.818Z,44.87
2018-05-10T16:46:20.869Z,45.35
2018-05-10T16:48:50.013Z,45.89
2018-05-10T16:51:19.162Z,46.23
2018-05-10T16:53:48.171Z,46.37
2018-05-10T16:56:17.139Z,46.71
2018-05-10T16:58:46.094Z,47.07
2018-05-10T17:01:15.108Z,47.77
2018-05-10T17:03:44.078Z,48.32
2018-05-10T17:06:13.467Z,48.76
2018-05-10T17:08:42.472Z,49.28
2018-05-10T17:11:11.428Z,50.00
2018-05-10T17:13:40.384Z,50.64
2018-05-10T17:16:09.617Z,50.82
2018-05-10T17:18:38.655Z,51.09
2018-05-10T17:21:07.819Z,51.13
2018-05-10T17:23:36.804Z,51.22
2018-05-10T17:26:05.504Z,51.28
2018-05-10T17:28:36.402Z,50.94
2018-05-10T17:31:06.967Z,50.83
2018-05-10T17:33:37.727Z,51.08
2018-05-10T17:36:08.405Z,51.38
2018-05-10T17:38:39.359Z,51.56
2018-05-10T17:41:10.444Z,51.58
2018-05-10T17:43:41.545Z,51.83
2018-05-10T17:46:12.437Z,52.19
2018-05-10T17:48:43.420Z,52.56
2018-05-10T17:51:14.318Z,52.77
2018-05-10T17:53:45.032Z,52.82
2018-05-10T17:56:15.710Z,52.90
2018-05-10T17:58:46.787Z,52.94
2018-05-10T18:01:17.550Z,52.82
2018-05-10T18:03:48.455Z,52.67
2018-05-10T18:06:19.470Z,52.71
2018-05-10T18:08:50.911Z,52.70
2018-05-10T18:11:21.818Z,52.92
2018-05-10T18:13:53.362Z,53.18
2018-05-10T18:16:22.713Z,53.17
2018-05-10T18:18:53.514Z,53.30
2018-05-10T18:21:24.365Z,53.77
2018-05-10T18:23:54.430Z,54.49
2018-05-10T18:26:25.390Z,54.66
2018-05-10T18:28:56.421Z,54.97
2018-05-10T18:31:28.105Z,55.55
2018-05-10T18:33:58.655Z,55.86
2018-05-10T18:36:29.398Z,56.25
2018-05-10T18:39:00.388Z,56.59
2018-05-10T18:41:30.968Z,57.11
2018-05-10T18:44:01.759Z,57.42
2018-05-10T18:46:31.819Z,57.50
2018-05-10T18:49:02.741Z,57.78
2018-05-10T18:51:33.597Z,58.03
2018-05-10T18:54:04.501Z,58.18
2018-05-10T18:56:36.009Z,58.19
2018-05-10T18:59:06.761Z,58.49
2018-05-10T19:01:38.061Z,58.84
2018-05-10T19:04:08.922Z,59.52
2018-05-10T19:06:38.878Z,58.76
2018-05-10T19:09:09.673Z,58.31
2018-05-10T19:11:40.355Z,58.25
2018-05-10T19:14:11.808Z,58.24
2018-05-10T19:16:42.504Z,58.12
2018-05-10T19:19:13.399Z,57.98
2018-05-10T19:21:44.432Z,57.92
2018-05-10T19:24:15.951Z,58.58
2018-05-10T19:26:45.881Z,59.85
2018-05-10T19:29:16.698Z,59.91
2018-05-10T19:31:47.443Z,59.23
2018-05-10T19:34:18.056Z,59.68
2018-05-10T19:36:48.738Z,59.51
2018-05-10T19:39:19.537Z,59.66
2018-05-10T19:41:50.424Z,59.41
2018-05-10T19:44:21.493Z,59.80
2018-05-10T19:46:52.385Z,60.17
2018-05-10T19:49:24.263Z,59.79
2018-05-10T19:51:54.729Z,59.70
2018-05-10T19:54:25.625Z,58.83
2018-05-10T19:56:56.391Z,60.06
2018-05-10T19:59:27.463Z,60.53
2018-05-10T20:01:58.134Z,60.84
2018-05-10T20:04:28.666Z,61.00
2018-05-10T20:06:59.390Z,61.29
2018-05-10T20:09:31.344Z,62.61
2018-05-10T20:12:02.059Z,62.41
2018-05-10T20:14:32.799Z,61.75
2018-05-10T20:17:04.878Z,61.65
2018-05-10T20:19:35.417Z,62.05
2018-05-10T20:22:06.101Z,62.38
2018-05-10T20:24:36.799Z,61.96
2018-05-10T20:27:07.399Z,60.90
2018-05-10T20:29:38.168Z,60.42
2018-05-10T20:32:08.327Z,60.08
2018-05-10T20:34:39.122Z,60.18
2018-05-10T20:37:09.828Z,61.41
2018-05-10T20:39:40.587Z,66.03
2018-05-10T20:42:11.511Z,70.37
2018-05-10T20:44:42.725Z,72.78
2018-05-10T20:47:13.442Z,71.89
2018-05-10T20:49:44.515Z,70.22
2018-05-10T20:52:15.455Z,68.78
2018-05-10T20:54:46.487Z,68.21
2018-05-10T20:57:17.477Z,68.15
2018-05-10T20:59:48.555Z,67.35
2018-05-10T21:02:19.522Z,67.17
2018-05-10T21:04:49.478Z,67.48
2018-05-10T21:07:20.157Z,67.88
2018-05-10T21:09:51.970Z,67.85
2018-05-10T21:12:45.741Z,67.98
2018-05-10T21:15:15.116Z,67.58
2018-05-10T21:17:44.062Z,67.41
2018-05-10T21:20:13.075Z,67.01
2018-05-10T21:22:42.395Z,66.96
2018-05-10T21:25:11.820Z,67.08
2018-05-10T21:27:41.060Z,67.34
2018-05-10T21:30:10.104Z,67.88
2018-05-10T21:32:39.050Z,68.21
2018-05-10T21:35:08.015Z,68.36
2018-05-10T21:37:37.080Z,68.22
2018-05-10T21:40:06.031Z,68.17
2018-05-10T21:42:34.972Z,68.72
2018-05-10T21:45:04.183Z,68.73
2018-05-10T21:47:34.641Z,68.71
2018-05-10T21:50:06.321Z,69.09
2018-05-10T21:52:36.078Z,69.18
2018-05-10T21:55:06.862Z,69.54
2018-05-10T21:57:37.782Z,69.82
2018-05-10T22:00:08.857Z,69.38
2018-05-10T22:02:39.548Z,69.80
2018-05-10T22:05:10.638Z,69.90
2018-05-10T22:07:41.508Z,69.96
2018-05-10T22:10:11.483Z,70.62
2018-05-10T22:12:42.521Z,70.39
2018-05-10T22:15:13.497Z,70.29
2018-05-10T22:17:44.117Z,70.44
2018-05-10T22:20:14.888Z,70.62
2018-05-10T22:22:45.660Z,70.37
2018-05-10T22:25:16.268Z,70.48
2018-05-10T22:27:46.944Z,70.26
2018-05-10T22:30:17.727Z,70.98
2018-05-10T22:32:47.802Z,70.18
2018-05-10T22:35:18.879Z,70.26
2018-05-10T22:37:49.504Z,70.78
2018-05-10T22:40:20.533Z,70.35
2018-05-10T22:42:51.411Z,69.96
2018-05-10T22:45:22.117Z,70.84
2018-05-10T22:47:52.809Z,71.07
2018-05-10T22:50:23.590Z,70.32
2018-05-10T22:52:54.537Z,71.79
2018-05-10T22:55:25.609Z,71.84
2018-05-10T22:57:56.494Z,71.08
2018-05-10T23:00:27.495Z,71.29
2018-05-10T23:02:58.482Z,71.83
2018-05-10T23:05:33.000Z,71.50
2018-05-10T23:08:01.987Z,71.88
2018-05-10T23:10:31.947Z,71.75
2018-05-10T23:13:02.708Z,72.03
2018-05-10T23:15:33.474Z,71.97
2018-05-10T23:18:04.497Z,72.57
2018-05-10T23:20:35.559Z,73.42
2018-05-10T23:23:06.555Z,73.84
2018-05-10T23:25:37.024Z,74.79
2018-05-10T23:28:07.775Z,74.41
2018-05-10T23:30:38.498Z,73.91
2018-05-10T23:33:09.500Z,73.65
2018-05-10T23:35:40.580Z,73.40
2018-05-10T23:38:11.609Z,73.43
2018-05-10T23:40:42.506Z,73.53
2018-05-10T23:43:13.507Z,74.08
2018-05-10T23:45:44.551Z,75.67
2018-05-10T23:48:15.502Z,75.83
2018-05-10T23:50:46.493Z,78.14
2018-05-10T23:53:17.674Z,77.94
2018-05-10T23:55:48.542Z,77.15
2018-05-10T23:58:19.602Z,76.70
